createdAt,value
2023-04-30T00:00:36.140Z,21.83
2023-04-30T00:03:04.579Z,22.27
2023-04-30T00:05:32.389Z,23.90
2023-04-30T00:08:00.027Z,22.77
2023-04-30T00:10:27.656Z,23.83
2023-04-30T00:12:55.642Z,25.17
2023-04-30T00:15:23.426Z,23.02
2023-04-30T00:17:51.153Z,26.10
2023-04-30T00:20:19.201Z,24.25
2023-04-30T00:22:47.090Z,24.02
2023-04-30T00:25:15.791Z,25.10
2023-04-30T00:27:43.573Z,25.50
2023-04-30T00:30:12.090Z,24.27
2023-04-30T00:32:40.973Z,26.92
2023-04-30T00:35:09.349Z,26.60
2023-04-30T00:37:37.060Z,25.23
2023-04-30T00:40:05.185Z,26.15
2023-04-30T00:42:33.148Z,27.15
2023-04-30T00:45:01.541Z,27.48
2023-04-30T00:47:29.413Z,25.75
2023-04-30T00:49:57.150Z,28.20
2023-04-30T00:52:24.943Z,27.20
2023-04-30T00:54:54.267Z,29.95
2023-04-30T00:57:23.292Z,28.92
2023-04-30T00:59:51.373Z,27.08
2023-04-30T01:02:20.227Z,28.45
2023-04-30T01:04:47.961Z,28.13
2023-04-30T01:07:15.719Z,31.33
2023-04-30T01:09:43.354Z,28.55
2023-04-30T01:12:29.112Z,30.50
2023-04-30T01:15:26.871Z,28.80
2023-04-30T01:18:03.442Z,30.08
2023-04-30T01:20:32.259Z,29.25
2023-04-30T01:23:25.176Z,29.23
2023-04-30T01:26:20.170Z,29.50
2023-04-30T01:28:52.174Z,30.27
2023-04-30T01:31:20.252Z,31.05
2023-04-30T01:33:48.123Z,29.27
2023-04-30T01:36:40.723Z,31.42
2023-04-30T01:39:21.088Z,29.50
2023-04-30T01:42:05.126Z,29.85
2023-04-30T01:45:11.148Z,32.20
2023-04-30T01:47:52.749Z,30.30
2023-04-30T01:50:37.404Z,31.23
2023-04-30T01:53:10.544Z,34.60
2023-04-30T01:55:45.352Z,32.20
2023-04-30T01:58:15.080Z,31.05
2023-04-30T02:00:42.817Z,31.25
2023-04-30T02:03:10.789Z,32.60
2023-04-30T02:05:38.534Z,32.50
2023-04-30T02:08:07.116Z,34.08
2023-04-30T02:10:36.907Z,31.33
2023-04-30T02:13:04.543Z,31.13
2023-04-30T02:15:32.576Z,31.38
2023-04-30T02:18:00.432Z,30.88
2023-04-30T02:20:28.346Z,30.48
2023-04-30T02:22:56.146Z,31.17
2023-04-30T02:25:23.697Z,32.97
2023-04-30T02:27:51.431Z,33.70
2023-04-30T02:30:20.870Z,31.15
2023-04-30T02:32:48.415Z,34.08
2023-04-30T02:35:16.069Z,35.72
2023-04-30T02:37:43.804Z,35.53
2023-04-30T02:40:12.070Z,35.05
2023-04-30T02:42:40.093Z,33.63
2023-04-30T02:45:08.610Z,34.00
2023-04-30T02:47:36.619Z,34.33
2023-04-30T02:50:05.533Z,31.63
2023-04-30T02:52:33.002Z,35.22
2023-04-30T02:55:00.417Z,33.78
2023-04-30T02:57:27.829Z,33.72
2023-04-30T02:59:55.442Z,34.03
2023-04-30T03:02:23.649Z,31.55
2023-04-30T03:04:51.821Z,33.38
2023-04-30T03:07:19.338Z,35.90
2023-04-30T03:09:46.818Z,32.53
2023-04-30T03:12:16.944Z,32.42
2023-04-30T03:14:44.354Z,33.20
2023-04-30T03:17:11.831Z,37.88
2023-04-30T03:19:39.823Z,34.75
2023-04-30T03:22:07.364Z,32.53
2023-04-30T03:24:35.127Z,32.33
2023-04-30T03:27:03.388Z,32.92
2023-04-30T03:29:30.859Z,33.20
2023-04-30T03:31:58.754Z,33.08
2023-04-30T03:34:26.506Z,33.05
2023-04-30T03:36:54.171Z,33.70
2023-04-30T03:39:21.636Z,31.50
2023-04-30T03:41:49.190Z,30.75
2023-04-30T03:44:16.766Z,35.15
2023-04-30T03:46:44.446Z,32.92
2023-04-30T03:49:12.149Z,31.83
2023-04-30T03:51:41.947Z,34.10
2023-04-30T03:54:10.324Z,32.63
2023-04-30T03:56:38.323Z,33.40
2023-04-30T03:59:06.520Z,33.80
2023-04-30T04:01:34.209Z,34.88
2023-04-30T04:04:02.521Z,35.63
2023-04-30T04:06:31.992Z,34.28
2023-04-30T04:08:59.707Z,34.55
2023-04-30T04:11:27.404Z,34.22
2023-04-30T04:13:56.637Z,36.17
2023-04-30T04:16:24.278Z,36.08
2023-04-30T04:18:51.925Z,35.92
2023-04-30T04:21:20.430Z,39.83
2023-04-30T04:23:48.352Z,37.45
2023-04-30T04:26:16.654Z,37.20
2023-04-30T04:28:44.518Z,36.33
2023-04-30T04:31:12.881Z,34.42
2023-04-30T04:33:40.461Z,36.28
2023-04-30T04:36:08.584Z,37.88
2023-04-30T04:38:36.249Z,37.35
2023-04-30T04:41:05.268Z,36.80
2023-04-30T04:43:32.941Z,38.53
2023-04-30T04:46:01.729Z,36.70
2023-04-30T04:48:31.010Z,38.47
2023-04-30T04:50:58.670Z,39.90
2023-04-30T04:53:27.392Z,36.97
2023-04-30T04:55:55.177Z,37.17
2023-04-30T04:58:22.782Z,39.47
2023-04-30T05:00:50.258Z,34.80
2023-04-30T05:03:20.991Z,35.08
2023-04-30T05:05:50.595Z,34.35
2023-04-30T05:08:18.517Z,36.92
2023-04-30T05:10:46.078Z,35.78
2023-04-30T05:13:14.452Z,36.10
2023-04-30T05:15:42.024Z,35.67
2023-04-30T05:18:09.684Z,34.72
2023-04-30T05:20:37.408Z,34.40
2023-04-30T05:23:05.048Z,33.63
2023-04-30T05:25:32.661Z,33.30
2023-04-30T05:28:00.301Z,32.55
2023-04-30T05:30:27.973Z,34.50
2023-04-30T05:32:56.920Z,31.30
2023-04-30T05:35:24.846Z,32.90
2023-04-30T05:37:52.517Z,33.55
2023-04-30T05:40:19.994Z,34.63
2023-04-30T05:42:47.490Z,33.10
2023-04-30T05:45:17.189Z,33.17
2023-04-30T05:47:44.867Z,32.47
2023-04-30T05:50:12.506Z,32.78
2023-04-30T05:52:40.262Z,32.90
2023-04-30T05:55:08.618Z,29.52
2023-04-30T05:57:36.835Z,31.13
2023-04-30T06:00:08.573Z,29.70
2023-04-30T06:02:41.986Z,28.73
2023-04-30T06:05:09.646Z,30.58
2023-04-30T06:07:37.286Z,27.95
2023-04-30T06:10:05.485Z,27.92
2023-04-30T06:12:33.303Z,28.20
2023-04-30T06:15:01.249Z,25.88
2023-04-30T06:17:28.865Z,25.90
2023-04-30T06:19:58.418Z,27.00
2023-04-30T06:22:25.837Z,26.88
2023-04-30T06:24:53.225Z,25.90
2023-04-30T06:27:20.752Z,26.98
2023-04-30T06:29:48.213Z,25.77
2023-04-30T06:32:15.762Z,28.98
2023-04-30T06:34:43.378Z,28.23
2023-04-30T06:37:10.955Z,29.30
2023-04-30T06:39:38.319Z,28.25
2023-04-30T06:42:06.012Z,29.02
2023-04-30T06:44:34.007Z,30.88
2023-04-30T06:47:01.879Z,31.42
2023-04-30T06:49:29.266Z,31.08
2023-04-30T06:51:58.526Z,30.75
2023-04-30T06:54:27.734Z,30.73
2023-04-30T06:56:55.518Z,30.25
2023-04-30T06:59:24.418Z,32.25
2023-04-30T07:01:51.962Z,30.45
2023-04-30T07:04:20.049Z,31.85
2023-04-30T07:06:47.540Z,29.80
2023-04-30T07:09:15.699Z,30.92
2023-04-30T07:11:44.290Z,31.27
2023-04-30T07:14:11.716Z,31.15
2023-04-30T07:16:39.125Z,30.13
2023-04-30T07:19:06.886Z,29.92
2023-04-30T07:21:34.378Z,31.35
2023-04-30T07:24:01.957Z,31.70
2023-04-30T07:26:29.532Z,30.48
2023-04-30T07:28:57.031Z,31.17
2023-04-30T07:31:25.987Z,29.20
2023-04-30T07:33:55.328Z,29.08
2023-04-30T07:36:23.217Z,28.70
2023-04-30T07:38:50.867Z,30.65
2023-04-30T07:41:18.870Z,26.20
2023-04-30T07:43:46.513Z,28.65
2023-04-30T07:46:14.064Z,29.23
2023-04-30T07:48:41.529Z,28.17
2023-04-30T07:51:09.256Z,29.02
2023-04-30T07:53:36.656Z,29.67
2023-04-30T07:56:04.782Z,28.30
2023-04-30T07:58:32.227Z,28.13
2023-04-30T08:00:59.783Z,30.90
2023-04-30T08:03:27.536Z,31.77
2023-04-30T08:05:55.313Z,31.92
2023-04-30T08:08:23.050Z,31.27
2023-04-30T08:10:50.684Z,30.98
2023-04-30T08:13:18.404Z,32.83
2023-04-30T08:15:46.370Z,34.13
2023-04-30T08:18:14.094Z,33.10
2023-04-30T08:20:41.894Z,34.95
2023-04-30T08:23:09.657Z,33.25
2023-04-30T08:25:37.542Z,34.22
2023-04-30T08:28:06.519Z,35.08
2023-04-30T08:30:33.922Z,34.75
2023-04-30T08:33:01.563Z,34.85
2023-04-30T08:35:30.086Z,33.13
2023-04-30T08:37:57.624Z,33.42
2023-04-30T08:40:43.621Z,34.33
2023-04-30T08:43:15.513Z,35.75
2023-04-30T08:45:45.636Z,33.15
2023-04-30T08:48:16.579Z,32.13
2023-04-30T08:50:44.506Z,32.28
2023-04-30T08:53:15.014Z,31.10
2023-04-30T08:55:53.464Z,30.17
2023-04-30T08:58:22.023Z,30.10
2023-04-30T09:00:49.618Z,31.00
2023-04-30T09:03:17.383Z,29.02
2023-04-30T09:05:45.195Z,29.05
2023-04-30T09:08:18.551Z,27.95
2023-04-30T09:10:46.674Z,27.00
2023-04-30T09:13:17.396Z,23.45
2023-04-30T09:15:46.754Z,23.92
2023-04-30T09:18:19.634Z,22.52
2023-04-30T09:21:02.012Z,16.00
2023-04-30T09:23:30.386Z,21.27
2023-04-30T09:25:58.737Z,21.73
2023-04-30T09:28:28.824Z,18.88
2023-04-30T09:30:57.825Z,18.30
2023-04-30T09:33:26.293Z,19.10
2023-04-30T09:35:54.158Z,19.98
2023-04-30T09:38:32.805Z,17.77
2023-04-30T09:41:01.917Z,18.27
2023-04-30T09:43:31.127Z,18.83
2023-04-30T09:46:00.052Z,17.25
2023-04-30T09:48:31.631Z,17.55
2023-04-30T09:51:03.668Z,17.92
2023-04-30T09:53:31.408Z,16.30
2023-04-30T09:56:02.929Z,18.13
2023-04-30T09:58:32.600Z,16.17
2023-04-30T10:01:03.898Z,17.45
2023-04-30T10:03:32.225Z,16.67
2023-04-30T10:06:01.006Z,19.25
2023-04-30T10:08:38.167Z,17.98
2023-04-30T10:11:07.539Z,16.50
2023-04-30T10:13:45.673Z,15.02
2023-04-30T10:16:26.602Z,16.83
2023-04-30T10:21:24.683Z,16.10
2023-04-30T10:23:54.255Z,16.40
2023-04-30T10:26:22.855Z,17.27
2023-04-30T10:28:51.918Z,17.50
2023-04-30T10:31:21.550Z,18.17
2023-04-30T10:34:15.410Z,18.63
2023-04-30T10:36:50.942Z,17.05
2023-04-30T10:39:27.658Z,18.83
2023-04-30T10:42:05.624Z,16.60
2023-04-30T10:44:40.235Z,15.65
2023-04-30T10:47:08.359Z,13.15
2023-04-30T10:49:36.038Z,14.93
2023-04-30T10:52:05.001Z,12.40
2023-04-30T10:54:36.802Z,11.73
2023-04-30T10:57:12.621Z,12.60
2023-04-30T10:59:45.263Z,9.77
2023-04-30T11:02:15.411Z,9.32
2023-04-30T11:05:12.858Z,9.15
2023-04-30T11:07:57.574Z,10.05
2023-04-30T11:10:27.414Z,10.45
2023-04-30T11:12:55.965Z,9.95
2023-04-30T11:15:31.806Z,9.70
2023-04-30T11:17:59.654Z,10.70
2023-04-30T11:20:28.263Z,10.02
2023-04-30T11:23:19.561Z,10.55
2023-04-30T11:25:55.734Z,10.27
2023-04-30T11:28:27.883Z,9.27
2023-04-30T11:30:57.495Z,8.27
2023-04-30T11:33:27.159Z,8.85
2023-04-30T11:35:56.379Z,8.57
2023-04-30T11:38:28.118Z,9.35
2023-04-30T11:40:57.553Z,8.85
2023-04-30T11:43:30.006Z,8.25
2023-04-30T11:46:12.649Z,9.13
2023-04-30T11:48:44.933Z,8.80
2023-04-30T11:51:15.268Z,7.72
2023-04-30T11:53:43.418Z,9.85
2023-04-30T11:56:10.908Z,9.10
2023-04-30T11:58:39.315Z,9.35
2023-04-30T12:01:09.486Z,9.93
2023-04-30T12:03:48.358Z,8.88
2023-04-30T12:06:24.716Z,9.63
2023-04-30T12:08:57.003Z,8.07
2023-04-30T12:11:31.976Z,7.65
2023-04-30T12:14:11.060Z,8.05
2023-04-30T12:16:49.287Z,8.45
2023-04-30T12:19:18.328Z,8.27
2023-04-30T12:21:47.410Z,9.15
2023-04-30T12:24:16.702Z,9.77
2023-04-30T12:26:45.010Z,9.13
2023-04-30T12:29:17.570Z,9.57
2023-04-30T12:31:49.013Z,9.65
2023-04-30T12:34:17.180Z,8.80
2023-04-30T12:36:44.863Z,8.00
2023-04-30T12:39:15.936Z,7.90
2023-04-30T12:41:49.560Z,7.47
2023-04-30T12:44:20.144Z,7.57
2023-04-30T12:49:27.723Z,7.15
2023-04-30T12:52:04.267Z,8.32
2023-04-30T12:54:35.007Z,7.75
2023-04-30T12:59:32.743Z,7.50
2023-04-30T13:02:10.936Z,7.28
2023-04-30T13:04:40.089Z,8.25
2023-04-30T13:07:07.698Z,8.10
2023-04-30T13:09:36.768Z,6.90
2023-04-30T13:12:04.810Z,7.65
2023-04-30T13:14:33.089Z,6.38
2023-04-30T13:17:02.679Z,6.75
2023-04-30T13:19:30.482Z,7.47
2023-04-30T13:21:59.071Z,6.35
2023-04-30T13:24:26.658Z,6.68
2023-04-30T13:26:54.490Z,7.47
2023-04-30T13:29:22.107Z,5.93
2023-04-30T13:31:49.907Z,7.00
2023-04-30T13:34:17.673Z,6.65
2023-04-30T13:36:46.872Z,7.30
2023-04-30T13:39:14.409Z,6.57
2023-04-30T13:41:41.809Z,5.85
2023-04-30T13:44:09.515Z,7.55
2023-04-30T13:46:37.149Z,6.72
2023-04-30T13:49:05.620Z,6.85
2023-04-30T13:51:33.151Z,7.05
2023-04-30T13:54:00.580Z,6.18
2023-04-30T13:56:28.271Z,6.80
2023-04-30T13:58:55.641Z,7.80
2023-04-30T14:01:23.218Z,7.78
2023-04-30T14:03:51.382Z,6.45
2023-04-30T14:06:19.475Z,6.75
2023-04-30T14:08:46.928Z,8.43
2023-04-30T14:11:14.461Z,8.45
2023-04-30T14:13:42.226Z,6.20
2023-04-30T14:16:09.859Z,6.82
2023-04-30T14:18:37.408Z,6.90
2023-04-30T14:21:05.050Z,7.32
2023-04-30T14:23:32.469Z,6.35
2023-04-30T14:26:00.035Z,7.03
2023-04-30T14:28:30.067Z,7.53
2023-04-30T14:30:57.611Z,6.60
2023-04-30T14:33:25.709Z,7.10
2023-04-30T14:35:53.548Z,6.38
2023-04-30T14:38:21.187Z,5.82
2023-04-30T14:40:48.536Z,5.45
2023-04-30T14:43:15.988Z,5.82
2023-04-30T14:45:44.961Z,5.80
2023-04-30T14:48:12.841Z,6.72
2023-04-30T14:50:40.270Z,6.43
2023-04-30T14:53:09.422Z,6.43
2023-04-30T14:55:37.890Z,5.82
2023-04-30T14:58:05.660Z,6.25
2023-04-30T15:00:33.300Z,5.75
2023-04-30T15:03:00.865Z,5.57
2023-04-30T15:05:29.389Z,4.55
2023-04-30T15:07:56.870Z,5.28
2023-04-30T15:10:24.350Z,5.63
2023-04-30T15:12:51.685Z,5.43
2023-04-30T15:15:21.255Z,5.45
2023-04-30T15:17:49.181Z,5.20
2023-04-30T15:20:16.660Z,6.40
2023-04-30T15:22:44.560Z,5.57
2023-04-30T15:25:11.961Z,5.28
2023-04-30T15:27:39.816Z,4.95
2023-04-30T15:30:08.097Z,5.32
2023-04-30T15:32:35.534Z,5.65
2023-04-30T15:35:03.478Z,6.20
2023-04-30T15:37:30.973Z,5.50
2023-04-30T15:39:58.469Z,5.70
2023-04-30T15:42:26.031Z,5.93
2023-04-30T15:44:53.437Z,5.68
2023-04-30T15:47:23.883Z,5.20
2023-04-30T15:49:51.497Z,6.03
2023-04-30T15:52:19.203Z,5.50
2023-04-30T15:54:46.703Z,8.73
2023-04-30T15:57:14.823Z,7.28
2023-04-30T15:59:44.914Z,6.55
2023-04-30T16:02:17.243Z,4.70
2023-04-30T16:04:44.696Z,7.15
2023-04-30T16:07:12.448Z,5.50
2023-04-30T16:09:41.454Z,6.57
2023-04-30T16:12:08.957Z,5.25
2023-04-30T16:14:36.414Z,5.32
2023-04-30T16:17:03.929Z,5.30
2023-04-30T16:19:31.570Z,5.20
2023-04-30T16:22:00.726Z,5.03
2023-04-30T16:24:28.399Z,6.05
2023-04-30T16:26:56.284Z,5.25
2023-04-30T16:29:23.703Z,4.90
2023-04-30T16:31:52.138Z,7.32
2023-04-30T16:34:19.571Z,5.18
2023-04-30T16:36:47.241Z,6.57
2023-04-30T16:39:16.983Z,6.13
2023-04-30T16:41:44.818Z,4.90
2023-04-30T16:44:12.323Z,9.52
2023-04-30T16:46:39.829Z,6.18
2023-04-30T16:49:07.324Z,10.85
2023-04-30T16:51:34.902Z,6.53
2023-04-30T16:54:02.777Z,5.80
2023-04-30T16:56:30.350Z,6.40
2023-04-30T16:58:57.874Z,7.40
2023-04-30T17:01:25.367Z,6.90
2023-04-30T17:03:52.930Z,3.95
2023-04-30T17:06:20.623Z,6.25
2023-04-30T17:08:48.095Z,4.78
2023-04-30T17:11:19.157Z,6.05
2023-04-30T17:13:46.941Z,5.65
2023-04-30T17:16:14.461Z,5.72
2023-04-30T17:18:41.879Z,5.10
2023-04-30T17:21:09.336Z,7.45
2023-04-30T17:23:37.036Z,5.13
2023-04-30T17:26:05.635Z,4.97
2023-04-30T17:28:33.253Z,6.53
2023-04-30T17:31:06.608Z,6.65
2023-04-30T17:33:34.302Z,6.30
2023-04-30T17:36:01.867Z,5.82
2023-04-30T17:38:29.362Z,5.65
2023-04-30T17:40:57.761Z,6.05
2023-04-30T17:43:26.557Z,7.05
2023-04-30T17:45:56.283Z,5.00
2023-04-30T17:48:23.830Z,4.93
2023-04-30T17:50:51.328Z,6.68
2023-04-30T17:53:18.906Z,5.53
2023-04-30T17:55:46.607Z,6.25
2023-04-30T17:58:14.875Z,6.43
2023-04-30T18:00:43.647Z,5.38
2023-04-30T18:03:11.304Z,4.38
2023-04-30T18:05:39.682Z,4.10
2023-04-30T18:08:08.149Z,5.82
2023-04-30T18:10:37.160Z,4.68
2023-04-30T18:13:04.836Z,4.40
2023-04-30T18:15:33.137Z,4.63
2023-04-30T18:18:01.036Z,5.65
2023-04-30T18:20:28.606Z,6.43
2023-04-30T18:22:56.047Z,5.72
2023-04-30T18:25:23.697Z,5.50
2023-04-30T18:27:51.339Z,5.35
2023-04-30T18:30:18.806Z,9.45
2023-04-30T18:32:46.387Z,7.25
2023-04-30T18:35:14.062Z,4.95
2023-04-30T18:37:41.479Z,5.50
2023-04-30T18:40:09.581Z,6.72
2023-04-30T18:42:37.708Z,5.57
2023-04-30T18:45:05.597Z,5.45
2023-04-30T18:47:33.678Z,4.03
2023-04-30T18:50:01.265Z,3.53
2023-04-30T18:52:28.910Z,4.35
2023-04-30T18:54:56.494Z,4.93
2023-04-30T18:57:24.255Z,3.97
2023-04-30T18:59:52.058Z,4.13
2023-04-30T19:02:21.896Z,5.47
2023-04-30T19:04:50.457Z,5.20
2023-04-30T19:07:18.556Z,7.55
2023-04-30T19:09:48.398Z,11.68
2023-04-30T19:12:16.109Z,13.60
2023-04-30T19:14:44.397Z,13.20
2023-04-30T19:17:14.927Z,14.02
2023-04-30T19:19:43.523Z,14.38
2023-04-30T19:22:11.748Z,13.40
2023-04-30T19:24:39.181Z,13.82
2023-04-30T19:27:06.723Z,13.38
2023-04-30T19:29:34.176Z,13.00
2023-04-30T19:32:04.277Z,11.52
2023-04-30T19:34:32.136Z,13.73
2023-04-30T19:36:59.629Z,13.10
2023-04-30T19:39:31.702Z,13.90
2023-04-30T19:41:59.302Z,13.45
2023-04-30T19:44:29.206Z,15.38
2023-04-30T19:46:56.718Z,13.77
2023-04-30T19:49:26.233Z,13.23
2023-04-30T19:51:54.829Z,13.35
2023-04-30T19:54:22.443Z,15.35
2023-04-30T19:56:52.663Z,14.93
2023-04-30T20:01:48.987Z,13.23
2023-04-30T20:04:16.694Z,12.88
2023-04-30T20:06:44.969Z,13.43
2023-04-30T20:09:12.550Z,13.15
2023-04-30T20:11:40.197Z,14.80
2023-04-30T20:14:08.159Z,13.60
2023-04-30T20:16:35.813Z,13.38
2023-04-30T20:19:04.208Z,13.82
2023-04-30T20:21:32.099Z,13.35
2023-04-30T20:24:00.064Z,12.30
2023-04-30T20:26:27.644Z,13.32
2023-04-30T20:28:55.194Z,11.05
2023-04-30T20:31:22.796Z,13.25
2023-04-30T20:33:50.490Z,12.45
2023-04-30T20:36:18.179Z,13.73
2023-04-30T20:38:45.633Z,13.45
2023-04-30T20:41:13.751Z,13.60
2023-04-30T20:43:41.523Z,12.98
2023-04-30T20:46:09.799Z,14.10
2023-04-30T20:48:37.181Z,15.77
2023-04-30T20:51:04.644Z,17.40
2023-04-30T20:53:32.610Z,17.80
2023-04-30T20:56:01.456Z,14.63
2023-04-30T20:58:28.944Z,15.27
2023-04-30T21:00:57.130Z,14.27
2023-04-30T21:03:24.923Z,14.85
2023-04-30T21:05:52.547Z,13.32
2023-04-30T21:08:19.977Z,13.52
2023-04-30T21:10:47.973Z,14.85
2023-04-30T21:13:16.965Z,15.10
2023-04-30T21:15:45.415Z,15.43
2023-04-30T21:18:12.984Z,14.88
2023-04-30T21:20:40.709Z,14.70
2023-04-30T21:23:08.212Z,14.00
2023-04-30T21:25:38.159Z,13.25
2023-04-30T21:28:06.462Z,13.50
2023-04-30T21:30:35.682Z,13.80
2023-04-30T21:33:03.908Z,15.20
2023-04-30T21:35:33.130Z,13.15
2023-04-30T21:38:01.090Z,13.43
2023-04-30T21:40:33.624Z,14.13
2023-04-30T21:43:01.518Z,13.77
2023-04-30T21:45:29.313Z,12.95
2023-04-30T21:47:57.113Z,13.45
2023-04-30T21:50:24.773Z,12.60
2023-04-30T21:52:52.874Z,13.15
2023-04-30T21:55:20.651Z,13.20
2023-04-30T21:57:51.071Z,12.77
2023-04-30T22:00:18.818Z,11.02
2023-04-30T22:02:49.642Z,14.13
2023-04-30T22:05:19.103Z,12.02
2023-04-30T22:07:47.423Z,13.15
2023-04-30T22:10:15.535Z,12.60
2023-04-30T22:12:46.266Z,13.90
2023-04-30T22:15:15.501Z,13.63
2023-04-30T22:17:43.577Z,13.98
2023-04-30T22:20:11.545Z,14.05
2023-04-30T22:22:39.061Z,12.82
2023-04-30T22:25:07.595Z,14.88
2023-04-30T22:27:35.147Z,14.45
2023-04-30T22:30:02.683Z,14.50
2023-04-30T22:32:30.382Z,14.68
2023-04-30T22:34:58.006Z,14.75
2023-04-30T22:37:26.423Z,14.70
2023-04-30T22:39:53.951Z,14.50
2023-04-30T22:42:21.819Z,14.38
2023-04-30T22:44:50.271Z,14.25
2023-04-30T22:47:18.401Z,15.45
2023-04-30T22:49:46.074Z,14.27
2023-04-30T22:52:14.182Z,14.70
2023-04-30T22:54:45.566Z,14.50
2023-04-30T22:57:13.370Z,16.38
2023-04-30T22:59:41.280Z,15.00
2023-04-30T23:02:10.279Z,15.25
2023-04-30T23:04:37.766Z,13.60
2023-04-30T23:07:05.343Z,14.38
2023-04-30T23:09:33.893Z,13.68
2023-04-30T23:12:05.686Z,15.07
2023-04-30T23:14:54.310Z,15.02
2023-04-30T23:17:23.372Z,16.05
2023-04-30T23:19:51.354Z,15.10
2023-04-30T23:22:18.932Z,16.05
2023-04-30T23:24:46.684Z,15.27
2023-04-30T23:27:14.333Z,14.65
2023-04-30T23:29:42.984Z,16.33
2023-04-30T23:32:10.850Z,15.10
2023-04-30T23:34:38.429Z,14.95
2023-04-30T23:37:06.020Z,15.57
2023-04-30T23:39:33.610Z,15.32
2023-04-30T23:42:01.026Z,16.23
2023-04-30T23:44:31.699Z,15.63
2023-04-30T23:47:01.144Z,15.40
2023-04-30T23:49:28.646Z,14.52
2023-04-30T23:51:56.030Z,14.73
2023-04-30T23:54:23.508Z,13.90
2023-04-30T23:56:51.040Z,15.90
2023-04-30T23:59:18.408Z,16.20
